Time;durP1;ratioP1;P1;durP2;ratioP2;P2;SDS_P1;SDS_P2;PMS_P1;PMS_P2;Temp;Humidity;BMP_temperature;BMP_pressure;BME280_temperature;BME280_humidity;BME280_pressure;Samples;Min_cycle;Max_cycle;Signal;HPM_P1;HPM_P2
2021/10/03 00:00:21;;;;;;;;;;;;;;;;;;5025977;28;20283;-90
2021/10/03 00:02:49;;;;;;;;;;;;;;;;;;5002020;28;20516;-91
2021/10/03 00:05:18;;;;;;;;;;;;;;;;;;5002252;28;19920;-91
2021/10/03 00:07:48;;;;;;;;;;;;;;;;;;5051122;28;20286;-91
2021/10/03 00:10:17;;;;;;;;;;;;;;;;;;5002131;28;19917;-91
2021/10/03 00:12:44;;;;;;;;;;;;;;;;;;5051463;28;19913;-91
2021/10/03 00:15:12;;;;;;;;;;;;;;;;;;5001907;28;19939;-92
2021/10/03 00:17:38;;;;;;;;;;;;;;;;;;5018358;28;19913;-91
2021/10/03 00:20:05;;;;;;;;;;;;;;;;;;5014614;28;19968;-91
2021/10/03 00:22:31;;;;;;;;;;;;;;;;;;5031020;28;19918;-92
2021/10/03 00:24:59;;;;;;;;;;;;;;;;;;5031143;28;19918;-91
2021/10/03 00:27:25;;;;;;;;;;;;;;;;;;5031068;28;19925;-91
2021/10/03 00:29:51;;;;;;;;;;;;;;;;;;5030916;28;19921;-91
2021/10/03 00:32:19;;;;;;;;;;;;;;;;;;5034361;28;19952;-92
2021/10/03 00:34:48;;;;;;;;;;;;;;;;;;5001798;28;19913;-91
2021/10/03 00:37:17;;;;;;;;;;;;;;;;;;5001436;28;19913;-91
2021/10/03 00:39:45;;;;;;;;;;;;;;;;;;5050699;28;19913;-91
2021/10/03 00:42:13;;;;;;;;;;;;;;;;;;5001453;28;19921;-91
2021/10/03 00:44:41;;;;;;;;;;;;;;;;;;5000889;28;19990;-92
2021/10/03 00:47:08;;;;;;;;;;;;;;;;;;5001534;28;19966;-92
2021/10/03 00:49:40;;;;;;;;;;;;;;;;;;5001105;28;19917;-92
2021/10/03 00:52:07;;;;;;;;;;;;;;;;;;5001675;28;19913;-91
2021/10/03 00:54:35;;;;;;;;;;;;;;;;;;5005594;28;19936;-92
2021/10/03 00:57:01;;;;;;;;;;;;;;;;;;5013853;28;19913;-92
2021/10/03 00:59:30;;;;;;;;;;;;;;;;;;4981524;28;19925;-92
2021/10/03 01:01:58;;;;;;;;;;;;;;;;;;5010278;28;19913;-92
2021/10/03 01:04:24;;;;;;;;;;;;;;;;;;4997551;28;19917;-90
2021/10/03 01:06:54;;;;;;;;;;;;;;;;;;5030455;28;19920;-92
2021/10/03 01:09:23;;;;;;;;;;;;;;;;;;4997278;28;20008;-91
2021/10/03 01:11:48;;;;;;;;;;;;;;;;;;5007344;28;19921;-92
2021/10/03 01:14:17;;;;;;;;;;;;;;;;;;4997419;28;20326;-91
2021/10/03 01:16:45;;;;;;;;;;;;;;;;;;5012090;28;20335;-92
2021/10/03 01:19:14;;;;;;;;;;;;;;;;;;5033637;28;19917;-92
2021/10/03 01:21:43;;;;;;;;;;;;;;;;;;5050553;28;19913;-91
2021/10/03 01:24:12;;;;;;;;;;;;;;;;;;5033570;28;19921;-91
2021/10/03 01:26:41;;;;;;;;;;;;;;;;;;5048294;28;19923;-92
2021/10/03 01:29:10;;;;;;;;;;;;;;;;;;5000606;28;20363;-91
2021/10/03 01:31:39;;;;;;;;;;;;;;;;;;5000575;28;20004;-91
2021/10/03 01:34:08;;;;;;;;;;;;;;;;;;5000497;28;20322;-92
2021/10/03 01:36:37;;;;;;;;;;;;;;;;;;5050035;28;19960;-92
2021/10/03 01:39:06;;;;;;;;;;;;;;;;;;5016076;28;19921;-92
2021/10/03 01:41:31;;;;;;;;;;;;;;;;;;5016671;28;19928;-92
2021/10/03 01:43:58;;;;;;;;;;;;;;;;;;5016745;28;19921;-92
2021/10/03 01:46:27;;;;;;;;;;;;;;;;;;5016213;28;19952;-92
2021/10/03 01:48:52;;;;;;;;;;;;;;;;;;5000068;28;19925;-91
2021/10/03 01:51:21;;;;;;;;;;;;;;;;;;5000517;28;19913;-91
2021/10/03 01:53:49;;;;;;;;;;;;;;;;;;4988176;28;19925;-92
2021/10/03 01:56:15;;;;;;;;;;;;;;;;;;4980105;28;19913;-92
2021/10/03 01:58:45;;;;;;;;;;;;;;;;;;4980355;28;19917;-92
2021/10/03 02:01:16;;;;;;;;;;;;;;;;;;4980668;28;19913;-91
2021/10/03 02:03:42;;;;;;;;;;;;;;;;;;4980748;28;20111;-91
2021/10/03 02:06:11;;;;;;;;;;;;;;;;;;4980611;28;20000;-91
2021/10/03 02:08:37;;;;;;;;;;;;;;;;;;5012106;28;19921;-91
2021/10/03 02:11:05;;;;;;;;;;;;;;;;;;4996291;28;20319;-90
2021/10/03 02:13:34;;;;;;;;;;;;;;;;;;5003623;28;20401;-91
2021/10/03 02:16:03;;;;;;;;;;;;;;;;;;4999577;28;19964;-91
2021/10/03 02:18:35;;;;;;;;;;;;;;;;;;5000239;28;20364;-91
2021/10/03 02:21:01;;;;;;;;;;;;;;;;;;5000007;28;19913;-91
2021/10/03 02:23:29;;;;;;;;;;;;;;;;;;5016040;28;19913;-91
2021/10/03 02:25:55;;;;;;;;;;;;;;;;;;5049111;28;19913;-90
2021/10/03 02:28:24;;;;;;;;;;;;;;;;;;4999441;28;19915;-90
2021/10/03 02:30:51;;;;;;;;;;;;;;;;;;4999579;28;19921;-90
2021/10/03 02:33:20;;;;;;;;;;;;;;;;;;5032535;28;20368;-91
2021/10/03 02:35:51;;;;;;;;;;;;;;;;;;5016170;28;19914;-91
2021/10/03 02:38:19;;;;;;;;;;;;;;;;;;5012189;28;19918;-91
2021/10/03 02:40:47;;;;;;;;;;;;;;;;;;5031950;28;19917;-90
2021/10/03 02:43:14;;;;;;;;;;;;;;;;;;5048871;28;19917;-91
2021/10/03 02:45:48;;;;;;;;;;;;;;;;;;5012343;28;19917;-90
2021/10/03 02:48:14;;;;;;;;;;;;;;;;;;5028457;28;19969;-90
2021/10/03 02:50:41;;;;;;;;;;;;;;;;;;5028750;28;19956;-91
2021/10/03 02:53:09;;;;;;;;;;;;;;;;;;5012024;28;19921;-90
2021/10/03 02:55:37;;;;;;;;;;;;;;;;;;5046133;28;20284;-90
2021/10/03 02:58:04;;;;;;;;;;;;;;;;;;5029184;28;19933;-89
2021/10/03 03:00:30;;;;;;;;;;;;;;;;;;4996377;28;19917;-90
2021/10/03 03:02:56;;;;;;;;;;;;;;;;;;4996231;28;19921;-91
2021/10/03 03:05:24;;;;;;;;;;;;;;;;;;4996060;28;19921;-90
2021/10/03 03:07:49;;;;;;;;;;;;;;;;;;5031992;28;19917;-90
2021/10/03 03:10:18;;;;;;;;;;;;;;;;;;4999684;28;20016;-90
2021/10/03 03:12:43;;;;;;;;;;;;;;;;;;4999994;28;19917;-89
2021/10/03 03:15:10;;;;;;;;;;;;;;;;;;4999867;28;19914;-90
2021/10/03 03:17:36;;;;;;;;;;;;;;;;;;4999391;28;19914;-90
2021/10/03 03:20:04;;;;;;;;;;;;;;;;;;5015100;28;19928;-90
2021/10/03 03:22:32;;;;;;;;;;;;;;;;;;5035567;28;19920;-88
2021/10/03 03:24:59;;;;;;;;;;;;;;;;;;5035440;28;20374;-89
2021/10/03 03:27:27;;;;;;;;;;;;;;;;;;5035542;28;19913;-89
2021/10/03 03:29:52;;;;;;;;;;;;;;;;;;5035651;28;20016;-88
2021/10/03 03:32:24;;;;;;;;;;;;;;;;;;5035667;28;19976;-89
2021/10/03 03:34:49;;;;;;;;;;;;;;;;;;5035304;28;20000;-89
2021/10/03 03:37:16;;;;;;;;;;;;;;;;;;5035328;28;19959;-89
2021/10/03 03:39:43;;;;;;;;;;;;;;;;;;5027789;28;20440;-87
2021/10/03 03:42:09;;;;;;;;;;;;;;;;;;4995599;28;20024;-88
2021/10/03 03:44:37;;;;;;;;;;;;;;;;;;5018599;28;20244;-88
2021/10/03 03:47:04;;;;;;;;;;;;;;;;;;5051793;28;20008;-88
2021/10/03 03:49:30;;;;;;;;;;;;;;;;;;5028650;28;19920;-88
2021/10/03 03:51:57;;;;;;;;;;;;;;;;;;4982366;28;19914;-87
2021/10/03 03:54:24;;;;;;;;;;;;;;;;;;4982401;28;19913;-88
2021/10/03 03:56:49;;;;;;;;;;;;;;;;;;4983026;28;19913;-87
2021/10/03 03:59:14;;;;;;;;;;;;;;;;;;5030883;28;19924;-87
2021/10/03 04:01:40;;;;;;;;;;;;;;;;;;5031177;28;20360;-87
2021/10/03 04:04:07;;;;;;;;;;;;;;;;;;5031239;28;19957;-88
2021/10/03 04:06:34;;;;;;;;;;;;;;;;;;5034051;28;19913;-86
2021/10/03 04:08:59;;;;;;;;;;;;;;;;;;5000864;28;19929;-87
2021/10/03 04:11:27;;;;;;;;;;;;;;;;;;5001020;28;19917;-86
2021/10/03 04:13:54;;;;;;;;;;;;;;;;;;5001545;28;19920;-87
2021/10/03 04:16:21;;;;;;;;;;;;;;;;;;5018301;28;19913;-88
2021/10/03 04:18:49;;;;;;;;;;;;;;;;;;5032538;28;19952;-87
2021/10/03 04:21:17;;;;;;;;;;;;;;;;;;5001725;28;19917;-88
2021/10/03 04:23:43;;;;;;;;;;;;;;;;;;5050799;28;19910;-86
2021/10/03 04:26:10;;;;;;;;;;;;;;;;;;5001332;28;19920;-87
2021/10/03 04:28:35;;;;;;;;;;;;;;;;;;5000988;28;19917;-88
2021/10/03 04:31:04;;;;;;;;;;;;;;;;;;5001188;28;19924;-88
2021/10/03 04:33:30;;;;;;;;;;;;;;;;;;5017733;28;20279;-88
2021/10/03 04:36:01;;;;;;;;;;;;;;;;;;5027832;28;20380;-88
2021/10/03 04:38:28;;;;;;;;;;;;;;;;;;5017158;28;20296;-88
2021/10/03 04:40:55;;;;;;;;;;;;;;;;;;5000642;28;19919;-87
2021/10/03 04:43:21;;;;;;;;;;;;;;;;;;5001099;28;19917;-88
2021/10/03 04:45:47;;;;;;;;;;;;;;;;;;5001207;28;19917;-89
2021/10/03 04:48:14;;;;;;;;;;;;;;;;;;5000677;28;19917;-89
2021/10/03 04:50:40;;;;;;;;;;;;;;;;;;5017339;28;19952;-88
2021/10/03 04:53:08;;;;;;;;;;;;;;;;;;5016707;28;19917;-86
2021/10/03 04:55:33;;;;;;;;;;;;;;;;;;5000652;28;20513;-88
2021/10/03 04:57:59;;;;;;;;;;;;;;;;;;5016971;28;19921;-86
2021/10/03 05:00:25;;;;;;;;;;;;;;;;;;5013017;28;19914;-87
2021/10/03 05:02:51;;;;;;;;;;;;;;;;;;5032933;28;19913;-86
2021/10/03 05:05:18;;;;;;;;;;;;;;;;;;5016901;28;19982;-88
2021/10/03 05:07:44;;;;;;;;;;;;;;;;;;5016717;28;19913;-86
2021/10/03 05:10:10;;;;;;;;;;;;;;;;;;4999504;28;19917;-86
2021/10/03 05:12:37;;;;;;;;;;;;;;;;;;5032509;28;20276;-87
2021/10/03 05:15:05;;;;;;;;;;;;;;;;;;5016526;28;20383;-86
2021/10/03 05:17:33;;;;;;;;;;;;;;;;;;5029249;28;20283;-90
2021/10/03 05:19:58;;;;;;;;;;;;;;;;;;5014049;28;20360;-90
2021/10/03 05:22:29;;;;;;;;;;;;;;;;;;5030110;28;19920;-90
2021/10/03 05:24:55;;;;;;;;;;;;;;;;;;5029885;28;19914;-91
2021/10/03 05:27:20;;;;;;;;;;;;;;;;;;5029803;28;19918;-91
2021/10/03 05:29:48;;;;;;;;;;;;;;;;;;5026218;28;20008;-91
2021/10/03 05:32:27;;;;;;;;;;;;;;;;;;4999437;28;19913;-90
2021/10/03 05:34:53;;;;;;;;;;;;;;;;;;5000492;28;19939;-91
2021/10/03 05:37:22;;;;;;;;;;;;;;;;;;5000157;28;19917;-91
2021/10/03 05:39:49;;;;;;;;;;;;;;;;;;5000587;28;20402;-91
2021/10/03 05:42:19;;;;;;;;;;;;;;;;;;5000015;28;19912;-92
2021/10/03 05:44:48;;;;;;;;;;;;;;;;;;5049877;28;19914;-91
2021/10/03 05:47:15;;;;;;;;;;;;;;;;;;5000179;28;20396;-90
2021/10/03 05:49:43;;;;;;;;;;;;;;;;;;4999965;28;19917;-90
2021/10/03 05:52:11;;;;;;;;;;;;;;;;;;5016768;28;19936;-89
2021/10/03 05:54:37;;;;;;;;;;;;;;;;;;5016321;28;20510;-88
2021/10/03 05:57:02;;;;;;;;;;;;;;;;;;5003274;28;20008;-89
2021/10/03 05:59:30;;;;;;;;;;;;;;;;;;4996752;28;19960;-91
2021/10/03 06:01:58;;;;;;;;;;;;;;;;;;4980309;28;19921;-91
2021/10/03 06:04:23;;;;;;;;;;;;;;;;;;5029307;28;19914;-89
2021/10/03 06:06:49;;;;;;;;;;;;;;;;;;4995570;28;19917;-89
2021/10/03 06:09:17;;;;;;;;;;;;;;;;;;5015392;28;20012;-87
2021/10/03 06:11:44;;;;;;;;;;;;;;;;;;5032147;28;19980;-88
2021/10/03 06:14:13;;;;;;;;;;;;;;;;;;5012357;28;19952;-89
2021/10/03 06:16:44;;;;;;;;;;;;;;;;;;5029529;28;19936;-90
2021/10/03 06:19:12;;;;;;;;;;;;;;;;;;5005545;28;19913;-88
2021/10/03 06:21:39;;;;;;;;;;;;;;;;;;5015656;28;19919;-88
2021/10/03 06:24:07;;;;;;;;;;;;;;;;;;4990494;28;20387;-90
2021/10/03 06:26:35;;;;;;;;;;;;;;;;;;4994174;28;19917;-90
2021/10/03 06:29:04;;;;;;;;;;;;;;;;;;5015053;28;20275;-88
2021/10/03 06:31:32;;;;;;;;;;;;;;;;;;5048215;28;19984;-89
2021/10/03 06:33:58;;;;;;;;;;;;;;;;;;5048754;28;19921;-89
2021/10/03 06:36:24;;;;;;;;;;;;;;;;;;4998919;28;19952;-88
2021/10/03 06:38:50;;;;;;;;;;;;;;;;;;4998871;28;20006;-88
2021/10/03 06:41:16;;;;;;;;;;;;;;;;;;4998762;28;19917;-88
2021/10/03 06:43:41;;;;;;;;;;;;;;;;;;5002099;28;19921;-90
2021/10/03 06:46:07;;;;;;;;;;;;;;;;;;5019972;28;19919;-88
2021/10/03 06:48:42;;;;;;;;;;;;;;;;;;5019478;28;19925;-90
2021/10/03 06:51:09;;;;;;;;;;;;;;;;;;5022504;28;19932;-93
2021/10/03 06:53:36;;;;;;;;;;;;;;;;;;5020003;28;19981;-90
2021/10/03 06:56:02;;;;;;;;;;;;;;;;;;5003772;28;19929;-89
2021/10/03 06:58:31;;;;;;;;;;;;;;;;;;5003276;28;19913;-93
2021/10/03 07:00:58;;;;;;;;;;;;;;;;;;5052788;28;19917;-93
2021/10/03 07:03:27;;;;;;;;;;;;;;;;;;5021170;28;20379;-91
2021/10/03 07:05:59;;;;;;;;;;;;;;;;;;5020572;28;19913;-93
2021/10/03 07:08:27;;;;;;;;;;;;;;;;;;5003251;28;19985;-90
2021/10/03 07:10:52;;;;;;;;;;;;;;;;;;5002740;28;19921;-90
2021/10/03 07:13:22;;;;;;;;;;;;;;;;;;5018986;28;19963;-91
2021/10/03 07:15:50;;;;;;;;;;;;;;;;;;5052310;28;19959;-90
2021/10/03 07:18:19;;;;;;;;;;;;;;;;;;5015591;28;19963;-91
2021/10/03 07:20:55;;;;;;;;;;;;;;;;;;5000047;28;20398;-92
2021/10/03 07:23:34;;;;;;;;;;;;;;;;;;5000541;28;19992;-93
2021/10/03 07:26:18;;;;;;;;;;;;;;;;;;5000876;28;19914;-94
2021/10/03 07:28:51;;;;;;;;;;;;;;;;;;5018119;28;19919;-90
2021/10/03 07:31:19;;;;;;;;;;;;;;;;;;4999583;28;20281;-92
2021/10/03 07:33:54;;;;;;;;;;;;;;;;;;5005190;28;19914;-93
2021/10/03 07:37:01;;;;;;;;;;;;;;;;;;5015921;28;19914;-91
2021/10/03 07:39:31;;;;;;;;;;;;;;;;;;4983616;28;19918;-92
2021/10/03 07:42:03;;;;;;;;;;;;;;;;;;5000028;28;20319;-92
2021/10/03 07:45:02;;;;;;;;;;;;;;;;;;4999515;28;19914;-95
2021/10/03 07:47:46;;;;;;;;;;;;;;;;;;5015412;28;20372;-94
2021/10/03 07:50:25;;;;;;;;;;;;;;;;;;5005110;28;20269;-93
2021/10/03 07:53:02;;;;;;;;;;;;;;;;;;5015755;28;20388;-94
2021/10/03 07:55:55;;;;;;;;;;;;;;;;;;5001329;28;19913;-95
2021/10/03 07:58:36;;;;;;;;;;;;;;;;;;4999768;28;19921;-93
2021/10/03 08:01:07;;;;;;;;;;;;;;;;;;4999924;28;19913;-93
2021/10/03 08:04:10;;;;;;;;;;;;;;;;;;4989832;28;20182;-92
2021/10/03 08:06:43;;;;;;;;;;;;;;;;;;4999007;28;19913;-94
2021/10/03 08:09:17;;;;;;;;;;;;;;;;;;4999090;28;20292;-93
2021/10/03 08:11:48;;;;;;;;;;;;;;;;;;4998480;28;19917;-94
2021/10/03 08:14:18;;;;;;;;;;;;;;;;;;5006754;28;20372;-92
2021/10/03 08:16:48;;;;;;;;;;;;;;;;;;5002006;28;20318;-91
2021/10/03 08:19:16;;;;;;;;;;;;;;;;;;5001961;28;19920;-92
2021/10/03 08:21:45;;;;;;;;;;;;;;;;;;5002085;28;20414;-92
2021/10/03 08:24:19;;;;;;;;;;;;;;;;;;5002345;28;19922;-91
2021/10/03 08:26:52;;;;;;;;;;;;;;;;;;5050874;28;20331;-91
2021/10/03 08:29:19;;;;;;;;;;;;;;;;;;5017754;28;20304;-91
2021/10/03 08:31:49;;;;;;;;;;;;;;;;;;5001878;28;19917;-90
2021/10/03 08:34:16;;;;;;;;;;;;;;;;;;5018212;28;20582;-92
2021/10/03 08:36:44;;;;;;;;;;;;;;;;;;5001688;28;20311;-92
2021/10/03 08:39:09;;;;;;;;;;;;;;;;;;5001126;28;19921;-92
2021/10/03 08:41:39;;;;;;;;;;;;;;;;;;5001347;28;19913;-92
2021/10/03 08:44:08;;;;;;;;;;;;;;;;;;5001676;28;20307;-91
2021/10/03 08:46:37;;;;;;;;;;;;;;;;;;5001562;28;20283;-90
2021/10/03 08:49:04;;;;;;;;;;;;;;;;;;5017592;28;20007;-91
2021/10/03 08:51:33;;;;;;;;;;;;;;;;;;5001335;28;20298;-90
2021/10/03 08:54:01;;;;;;;;;;;;;;;;;;5028888;28;19916;-90
2021/10/03 08:56:29;;;;;;;;;;;;;;;;;;5020800;28;19913;-91
2021/10/03 08:58:55;;;;;;;;;;;;;;;;;;5037388;28;20431;-90
2021/10/03 09:01:20;;;;;;;;;;;;;;;;;;5021005;28;20004;-90
2021/10/03 09:03:46;;;;;;;;;;;;;;;;;;5020265;28;19913;-90
2021/10/03 09:06:12;;;;;;;;;;;;;;;;;;5021049;28;20413;-90
2021/10/03 09:08:42;;;;;;;;;;;;;;;;;;5020320;28;19968;-90
2021/10/03 09:11:11;;;;;;;;;;;;;;;;;;5020578;28;19920;-91
2021/10/03 09:13:39;;;;;;;;;;;;;;;;;;5020059;28;19917;-91
2021/10/03 09:16:06;;;;;;;;;;;;;;;;;;5020690;28;19920;-90
2021/10/03 09:18:36;;;;;;;;;;;;;;;;;;5037245;28;20259;-91
2021/10/03 09:21:05;;;;;;;;;;;;;;;;;;5020301;28;19917;-90
2021/10/03 09:23:32;;;;;;;;;;;;;;;;;;5019923;28;20445;-92
2021/10/03 09:26:02;;;;;;;;;;;;;;;;;;5020414;28;19916;-91
2021/10/03 09:28:31;;;;;;;;;;;;;;;;;;5020463;28;20359;-93
2021/10/03 09:31:01;;;;;;;;;;;;;;;;;;5020306;28;19913;-93
2021/10/03 09:33:52;;;;;;;;;;;;;;;;;;5036521;28;19919;-91
2021/10/03 09:36:24;;;;;;;;;;;;;;;;;;5034092;28;19924;-92
2021/10/03 09:38:57;;;;;;;;;;;;;;;;;;5036020;28;20302;-92
2021/10/03 09:41:30;;;;;;;;;;;;;;;;;;5019783;28;19924;-92
2021/10/03 09:44:11;;;;;;;;;;;;;;;;;;5019976;28;19955;-92
2021/10/03 09:46:43;;;;;;;;;;;;;;;;;;5021178;28;20263;-93
2021/10/03 09:49:15;;;;;;;;;;;;;;;;;;5020036;28;19917;-94
2021/10/03 09:51:45;;;;;;;;;;;;;;;;;;5020062;28;20394;-93
2021/10/03 09:54:15;;;;;;;;;;;;;;;;;;5019905;28;19995;-93
2021/10/03 09:56:45;;;;;;;;;;;;;;;;;;5020095;28;19913;-93
2021/10/03 09:59:14;;;;;;;;;;;;;;;;;;5019775;28;19913;-91
2021/10/03 10:01:45;;;;;;;;;;;;;;;;;;5036207;28;19963;-93
2021/10/03 10:04:18;;;;;;;;;;;;;;;;;;5020607;28;20291;-91
2021/10/03 10:06:44;;;;;;;;;;;;;;;;;;5019323;28;19913;-92
2021/10/03 10:09:11;;;;;;;;;;;;;;;;;;5019695;28;20015;-92
2021/10/03 10:11:38;;;;;;;;;;;;;;;;;;5019265;28;19916;-93
2021/10/03 10:14:06;;;;;;;;;;;;;;;;;;5019758;28;20282;-93
2021/10/03 10:16:33;;;;;;;;;;;;;;;;;;5019234;28;20416;-92
2021/10/03 10:21:48;;;;;;;;;;;;;;;;;;5052488;28;20325;-94
2021/10/03 10:24:32;;;;;;;;;;;;;;;;;;5019278;28;20012;-93
2021/10/03 10:27:02;;;;;;;;;;;;;;;;;;5035684;28;19919;-92
2021/10/03 10:29:47;;;;;;;;;;;;;;;;;;5035587;28;19923;-93
2021/10/03 10:32:15;;;;;;;;;;;;;;;;;;5035873;28;19913;-92
2021/10/03 10:35:05;;;;;;;;;;;;;;;;;;5019174;28;19919;-92
2021/10/03 10:37:49;;;;;;;;;;;;;;;;;;5035364;28;20328;-91
2021/10/03 10:40:24;;;;;;;;;;;;;;;;;;5035656;28;20346;-92
2021/10/03 10:43:02;;;;;;;;;;;;;;;;;;5035246;28;19917;-91
2021/10/03 10:45:28;;;;;;;;;;;;;;;;;;5035507;28;19920;-93
2021/10/03 10:48:09;;;;;;;;;;;;;;;;;;5035478;28;19917;-92
2021/10/03 10:50:42;;;;;;;;;;;;;;;;;;5035422;28;19964;-92
2021/10/03 10:53:17;;;;;;;;;;;;;;;;;;5019030;28;20302;-92
2021/10/03 10:56:01;;;;;;;;;;;;;;;;;;5019070;28;19983;-91
2021/10/03 10:58:29;;;;;;;;;;;;;;;;;;5035376;28;19917;-91
2021/10/03 11:01:11;;;;;;;;;;;;;;;;;;5019022;28;19988;-91
2021/10/03 11:03:50;;;;;;;;;;;;;;;;;;5019426;28;19924;-91
2021/10/03 11:06:23;;;;;;;;;;;;;;;;;;5035191;28;19946;-90
2021/10/03 11:09:04;;;;;;;;;;;;;;;;;;5034990;28;20335;-92
2021/10/03 11:11:48;;;;;;;;;;;;;;;;;;5018639;28;19960;-92
2021/10/03 11:14:17;;;;;;;;;;;;;;;;;;5035787;28;20349;-91
2021/10/03 11:16:48;;;;;;;;;;;;;;;;;;5019197;28;20319;-90
2021/10/03 11:19:16;;;;;;;;;;;;;;;;;;5019124;28;20283;-91
2021/10/03 11:21:49;;;;;;;;;;;;;;;;;;5019377;28;19913;-92
2021/10/03 11:24:20;;;;;;;;;;;;;;;;;;5019409;28;19917;-91
2021/10/03 11:26:49;;;;;;;;;;;;;;;;;;5018816;28;19962;-91
2021/10/03 11:29:15;;;;;;;;;;;;;;;;;;5038695;28;20283;-90
2021/10/03 11:31:49;;;;;;;;;;;;;;;;;;5022190;28;19920;-91
2021/10/03 11:34:35;;;;;;;;;;;;;;;;;;5023372;28;20340;-91
2021/10/03 11:37:04;;;;;;;;;;;;;;;;;;5022176;28;19913;-92
2021/10/03 11:39:38;;;;;;;;;;;;;;;;;;5038706;28;19970;-91
2021/10/03 11:42:08;;;;;;;;;;;;;;;;;;5038876;28;19939;-92
2021/10/03 11:44:37;;;;;;;;;;;;;;;;;;5022676;28;19913;-92
2021/10/03 11:47:13;;;;;;;;;;;;;;;;;;5022542;28;20328;-92
2021/10/03 11:49:42;;;;;;;;;;;;;;;;;;5021714;28;19959;-93
2021/10/03 11:52:09;;;;;;;;;;;;;;;;;;5038479;28;20012;-92
2021/10/03 11:54:49;;;;;;;;;;;;;;;;;;5005233;28;19913;-92
2021/10/03 11:57:31;;;;;;;;;;;;;;;;;;5002312;28;19913;-92
2021/10/03 12:00:03;;;;;;;;;;;;;;;;;;5003825;28;19920;-91
2021/10/03 12:02:33;;;;;;;;;;;;;;;;;;5001783;28;19925;-91
2021/10/03 12:05:00;;;;;;;;;;;;;;;;;;5002172;28;19917;-92
2021/10/03 12:07:25;;;;;;;;;;;;;;;;;;5001660;28;19913;-90
2021/10/03 12:09:59;;;;;;;;;;;;;;;;;;5001735;28;19987;-90
2021/10/03 12:12:46;;;;;;;;;;;;;;;;;;5001932;28;19952;-90
2021/10/03 12:15:32;;;;;;;;;;;;;;;;;;5018183;28;19921;-89
2021/10/03 12:18:01;;;;;;;;;;;;;;;;;;5034692;28;20383;-92
2021/10/03 12:20:47;;;;;;;;;;;;;;;;;;5002089;28;20299;-92
2021/10/03 12:23:17;;;;;;;;;;;;;;;;;;5018000;28;19928;-91
2021/10/03 12:25:45;;;;;;;;;;;;;;;;;;5018254;28;19928;-91
2021/10/03 12:28:10;;;;;;;;;;;;;;;;;;5001874;28;20371;-90
2021/10/03 12:30:54;;;;;;;;;;;;;;;;;;5002162;28;20024;-91
2021/10/03 12:33:23;;;;;;;;;;;;;;;;;;5001804;28;19913;-90
2021/10/03 12:35:59;;;;;;;;;;;;;;;;;;5017991;28;20425;-90
2021/10/03 12:38:28;;;;;;;;;;;;;;;;;;5000779;28;20376;-91
2021/10/03 12:40:54;;;;;;;;;;;;;;;;;;5001030;28;19913;-89
2021/10/03 12:43:22;;;;;;;;;;;;;;;;;;5001265;28;19913;-90
2021/10/03 12:45:48;;;;;;;;;;;;;;;;;;5001723;28;19917;-90
2021/10/03 12:48:17;;;;;;;;;;;;;;;;;;5001212;28;19966;-90
2021/10/03 12:50:43;;;;;;;;;;;;;;;;;;5017417;28;19930;-92
2021/10/03 12:53:09;;;;;;;;;;;;;;;;;;5006200;28;19921;-91
2021/10/03 12:55:36;;;;;;;;;;;;;;;;;;5020783;28;19912;-91
2021/10/03 12:58:05;;;;;;;;;;;;;;;;;;5020737;28;19913;-91
2021/10/03 13:00:32;;;;;;;;;;;;;;;;;;5003372;28;19917;-91
2021/10/03 13:02:57;;;;;;;;;;;;;;;;;;5015413;28;19920;-83
2021/10/03 13:05:23;;;;;;;;;;;;;;;;;;4999314;28;19917;-85
2021/10/03 13:07:48;;;;;;;;;;;;;;;;;;4998586;28;19928;-84
2021/10/03 13:10:13;;;;;;;;;;;;;;;;;;5015136;28;19923;-83
2021/10/03 13:12:39;;;;;;;;;;;;;;;;;;5011990;28;19918;-84
2021/10/03 13:15:08;;;;;;;;;;;;;;;;;;5010574;28;20000;-84
2021/10/03 13:17:35;;;;;;;;;;;;;;;;;;5029981;28;19940;-84
2021/10/03 13:20:00;;;;;;;;;;;;;;;;;;5025971;28;19917;-83
2021/10/03 13:22:27;;;;;;;;;;;;;;;;;;5036147;28;19927;-84
2021/10/03 13:24:53;;;;;;;;;;;;;;;;;;5014630;28;19924;-84
2021/10/03 13:27:18;;;;;;;;;;;;;;;;;;5015592;28;19960;-84
2021/10/03 13:29:44;;;;;;;;;;;;;;;;;;5048382;28;19945;-84
2021/10/03 13:32:09;;;;;;;;;;;;;;;;;;5015495;28;19971;-85
2021/10/03 13:34:36;;;;;;;;;;;;;;;;;;5016313;28;19913;-86
2021/10/03 13:37:01;;;;;;;;;;;;;;;;;;5012310;28;19924;-86
2021/10/03 13:39:27;;;;;;;;;;;;;;;;;;5044783;28;19914;-85
2021/10/03 13:41:54;;;;;;;;;;;;;;;;;;5028413;28;19979;-85
2021/10/03 13:44:20;;;;;;;;;;;;;;;;;;5028835;28;20008;-85
2021/10/03 13:46:46;;;;;;;;;;;;;;;;;;5012549;28;19917;-86
2021/10/03 13:49:12;;;;;;;;;;;;;;;;;;5028642;28;19918;-84
2021/10/03 13:51:38;;;;;;;;;;;;;;;;;;5029143;28;19940;-86
2021/10/03 13:54:04;;;;;;;;;;;;;;;;;;5027168;28;19975;-84
2021/10/03 13:56:29;;;;;;;;;;;;;;;;;;5028372;28;19972;-84
2021/10/03 13:58:56;;;;;;;;;;;;;;;;;;5028722;28;19980;-88
2021/10/03 14:01:23;;;;;;;;;;;;;;;;;;5028807;28;20000;-85
2021/10/03 14:03:50;;;;;;;;;;;;;;;;;;5031052;28;19916;-85
2021/10/03 14:06:17;;;;;;;;;;;;;;;;;;5020083;28;19921;-85
2021/10/03 14:08:43;;;;;;;;;;;;;;;;;;4998386;28;19949;-83
2021/10/03 14:11:09;;;;;;;;;;;;;;;;;;4999538;28;19921;-92
2021/10/03 14:13:37;;;;;;;;;;;;;;;;;;4995749;28;20302;-93
2021/10/03 14:16:06;;;;;;;;;;;;;;;;;;5028329;28;20375;-94
2021/10/03 14:18:34;;;;;;;;;;;;;;;;;;4999792;28;19924;-91
2021/10/03 14:21:01;;;;;;;;;;;;;;;;;;4991055;28;19964;-90
2021/10/03 14:23:28;;;;;;;;;;;;;;;;;;4980069;28;19924;-90
2021/10/03 14:26:02;;;;;;;;;;;;;;;;;;4988633;28;20012;-89
2021/10/03 14:28:31;;;;;;;;;;;;;;;;;;4997634;28;19913;-89
2021/10/03 14:30:57;;;;;;;;;;;;;;;;;;4996116;28;19965;-89
2021/10/03 14:33:24;;;;;;;;;;;;;;;;;;4996875;28;19925;-89
2021/10/03 14:35:51;;;;;;;;;;;;;;;;;;4998242;28;19914;-88
2021/10/03 14:38:17;;;;;;;;;;;;;;;;;;4998929;28;19913;-86
2021/10/03 14:40:44;;;;;;;;;;;;;;;;;;4999304;28;19921;-88
2021/10/03 14:43:09;;;;;;;;;;;;;;;;;;4999319;28;19917;-89
2021/10/03 14:45:36;;;;;;;;;;;;;;;;;;5016422;28;19913;-88
2021/10/03 14:48:02;;;;;;;;;;;;;;;;;;5015686;28;20385;-91
2021/10/03 14:50:27;;;;;;;;;;;;;;;;;;5015406;28;20371;-89
2021/10/03 14:52:53;;;;;;;;;;;;;;;;;;5015110;28;19929;-89
2021/10/03 14:55:19;;;;;;;;;;;;;;;;;;4999894;28;20268;-89
2021/10/03 14:57:48;;;;;;;;;;;;;;;;;;4998984;28;20286;-90
2021/10/03 15:00:16;;;;;;;;;;;;;;;;;;5032098;28;20006;-90
2021/10/03 15:02:43;;;;;;;;;;;;;;;;;;5050028;28;19913;-90
2021/10/03 15:05:13;;;;;;;;;;;;;;;;;;5003804;28;19917;-89
2021/10/03 15:07:42;;;;;;;;;;;;;;;;;;4999682;28;19977;-89
2021/10/03 15:10:09;;;;;;;;;;;;;;;;;;4999958;28;20386;-88
2021/10/03 15:12:36;;;;;;;;;;;;;;;;;;5012316;28;19924;-90
2021/10/03 15:15:03;;;;;;;;;;;;;;;;;;5032832;28;19921;-90
2021/10/03 15:17:33;;;;;;;;;;;;;;;;;;5032112;28;19921;-90
2021/10/03 15:20:01;;;;;;;;;;;;;;;;;;5033366;28;19923;-92
2021/10/03 15:22:29;;;;;;;;;;;;;;;;;;5004374;28;19917;-89
2021/10/03 15:24:56;;;;;;;;;;;;;;;;;;5003123;28;19913;-92
2021/10/03 15:27:26;;;;;;;;;;;;;;;;;;5002717;28;19917;-92
2021/10/03 15:29:53;;;;;;;;;;;;;;;;;;5018532;28;19917;-90
2021/10/03 15:32:22;;;;;;;;;;;;;;;;;;5019375;28;19916;-91
2021/10/03 15:34:51;;;;;;;;;;;;;;;;;;5015322;28;19918;-91
2021/10/03 15:37:20;;;;;;;;;;;;;;;;;;4983278;28;20257;-92
2021/10/03 15:39:47;;;;;;;;;;;;;;;;;;5002471;28;20371;-92
2021/10/03 15:42:14;;;;;;;;;;;;;;;;;;5052194;28;19925;-92
2021/10/03 15:44:43;;;;;;;;;;;;;;;;;;5002767;28;19953;-91
2021/10/03 15:47:12;;;;;;;;;;;;;;;;;;5002342;28;20260;-91
2021/10/03 15:49:38;;;;;;;;;;;;;;;;;;5051481;28;20701;-91
2021/10/03 15:52:06;;;;;;;;;;;;;;;;;;5002550;28;19921;-93
2021/10/03 15:54:33;;;;;;;;;;;;;;;;;;5002495;28;20307;-92
2021/10/03 15:57:02;;;;;;;;;;;;;;;;;;5002651;28;19913;-93
2021/10/03 15:59:31;;;;;;;;;;;;;;;;;;5051239;28;19917;-93
2021/10/03 16:02:00;;;;;;;;;;;;;;;;;;5018395;28;20016;-93
2021/10/03 16:04:28;;;;;;;;;;;;;;;;;;5051314;28;19919;-94
2021/10/03 16:06:54;;;;;;;;;;;;;;;;;;5002099;28;19924;-92
2021/10/03 16:09:23;;;;;;;;;;;;;;;;;;5002250;28;20011;-93
2021/10/03 16:11:52;;;;;;;;;;;;;;;;;;5002260;28;20000;-94
2021/10/03 16:14:21;;;;;;;;;;;;;;;;;;5050044;28;20422;-92
2021/10/03 16:25:18;;;;;;;;;;;;;;;;;;5014417;28;19925;-95
2021/10/03 16:27:43;;;;;;;;;;;;;;;;;;4995899;28;20354;-87
2021/10/03 16:30:10;;;;;;;;;;;;;;;;;;4987506;28;19914;-83
2021/10/03 16:32:36;;;;;;;;;;;;;;;;;;4976900;28;19957;-83
2021/10/03 16:35:02;;;;;;;;;;;;;;;;;;4974137;28;19924;-84
2021/10/03 16:37:28;;;;;;;;;;;;;;;;;;4965499;28;19918;-83
2021/10/03 16:39:53;;;;;;;;;;;;;;;;;;4981677;28;20372;-87
2021/10/03 16:42:18;;;;;;;;;;;;;;;;;;4977762;28;20013;-86
2021/10/03 16:44:44;;;;;;;;;;;;;;;;;;4962062;28;19953;-87
2021/10/03 16:47:09;;;;;;;;;;;;;;;;;;4984038;28;19915;-87
2021/10/03 16:49:36;;;;;;;;;;;;;;;;;;4972553;28;19961;-87
2021/10/03 16:52:01;;;;;;;;;;;;;;;;;;4972606;28;19914;-88
2021/10/03 16:54:30;;;;;;;;;;;;;;;;;;4976003;28;19918;-89
2021/10/03 16:56:56;;;;;;;;;;;;;;;;;;4978068;28;19918;-89
2021/10/03 16:59:22;;;;;;;;;;;;;;;;;;4960905;28;19914;-86
2021/10/03 17:01:49;;;;;;;;;;;;;;;;;;4972255;28;19914;-86
2021/10/03 17:04:15;;;;;;;;;;;;;;;;;;4958183;28;20384;-86
2021/10/03 17:06:42;;;;;;;;;;;;;;;;;;4973541;28;19915;-86
2021/10/03 17:09:07;;;;;;;;;;;;;;;;;;4985809;28;19921;-86